createdAt,value
2022-12-01T00:01:35.822Z,100.00
2022-12-01T00:04:38.684Z,100.00
2022-12-01T00:07:41.496Z,100.00
2022-12-01T00:10:44.604Z,100.00
2022-12-01T00:13:47.084Z,100.00
2022-12-01T00:16:50.203Z,100.00
2022-12-01T00:19:52.848Z,100.00
2022-12-01T00:22:56.059Z,100.00
2022-12-01T00:26:05.382Z,100.00
2022-12-01T00:29:08.451Z,100.00
2022-12-01T00:32:11.248Z,100.00
2022-12-01T00:35:14.687Z,100.00
2022-12-01T00:38:17.282Z,100.00
2022-12-01T00:41:21.193Z,100.00
2022-12-01T00:44:23.785Z,100.00
2022-12-01T00:47:26.768Z,100.00
2022-12-01T00:50:29.473Z,100.00
2022-12-01T00:53:32.380Z,100.00
2022-12-01T00:56:34.930Z,100.00
2022-12-01T00:59:38.067Z,100.00
2022-12-01T01:02:40.864Z,100.00
2022-12-01T01:05:44.421Z,100.00
2022-12-01T01:08:47.256Z,100.00
2022-12-01T01:11:50.512Z,100.00
2022-12-01T01:14:52.996Z,100.00
2022-12-01T01:17:55.849Z,100.00
2022-12-01T01:21:00.363Z,100.00
2022-12-01T01:24:03.376Z,100.00
2022-12-01T01:27:06.258Z,100.00
2022-12-01T01:30:09.638Z,100.00
2022-12-01T01:33:12.538Z,100.00
2022-12-01T01:36:16.465Z,100.00
2022-12-01T01:39:19.083Z,100.00
2022-12-01T01:42:22.490Z,100.00
2022-12-01T01:45:29.002Z,100.00
2022-12-01T01:48:33.016Z,100.00
2022-12-01T01:51:38.447Z,100.00
2022-12-01T01:54:43.508Z,100.00
2022-12-01T01:57:46.337Z,100.00
2022-12-01T02:00:49.518Z,100.00
2022-12-01T02:03:54.844Z,100.00
2022-12-01T02:06:57.689Z,100.00
2022-12-01T02:10:00.728Z,100.00
2022-12-01T02:13:24.813Z,100.00
2022-12-01T02:16:51.203Z,100.00
2022-12-01T02:20:12.308Z,100.00
2022-12-01T02:23:18.454Z,100.00
2022-12-01T02:26:36.800Z,100.00
2022-12-01T02:29:58.140Z,100.00
2022-12-01T02:33:08.398Z,100.00
2022-12-01T02:36:56.608Z,100.00
2022-12-01T02:40:24.761Z,100.00
2022-12-01T02:43:38.119Z,100.00
2022-12-01T02:46:52.852Z,100.00
2022-12-01T02:49:57.620Z,100.00
2022-12-01T02:53:01.536Z,100.00
2022-12-01T02:56:07.960Z,100.00
2022-12-01T02:59:12.263Z,100.00
2022-12-01T03:02:29.361Z,100.00
2022-12-01T03:05:41.533Z,100.00
2022-12-01T03:08:50.656Z,100.00
2022-12-01T03:12:28.892Z,100.00
2022-12-01T03:15:38.091Z,100.00
2022-12-01T03:18:51.310Z,100.00
2022-12-01T03:22:02.098Z,100.00
2022-12-01T03:25:05.146Z,100.00
2022-12-01T03:28:24.858Z,100.00
2022-12-01T03:31:32.278Z,100.00
2022-12-01T03:34:49.925Z,100.00
2022-12-01T03:38:13.430Z,100.00
2022-12-01T03:41:20.307Z,100.00
2022-12-01T03:44:26.190Z,100.00
2022-12-01T03:47:32.399Z,100.00
2022-12-01T03:50:45.285Z,100.00
2022-12-01T03:53:59.171Z,100.00
2022-12-01T03:57:06.194Z,100.00
2022-12-01T04:00:11.471Z,100.00
2022-12-01T04:03:19.670Z,100.00
2022-12-01T04:06:22.707Z,100.00
2022-12-01T04:09:25.282Z,100.00
2022-12-01T04:12:31.153Z,100.00
2022-12-01T04:15:33.667Z,100.00
2022-12-01T04:18:36.711Z,100.00
2022-12-01T04:21:39.199Z,100.00
2022-12-01T04:24:42.133Z,100.00
2022-12-01T04:27:44.759Z,100.00
2022-12-01T04:30:47.857Z,100.00
2022-12-01T04:33:50.478Z,100.00
2022-12-01T04:36:53.301Z,100.00
2022-12-01T04:39:55.889Z,100.00
2022-12-01T04:42:58.871Z,100.00
2022-12-01T04:46:01.633Z,100.00
2022-12-01T04:49:05.249Z,100.00
2022-12-01T04:52:07.796Z,100.00
2022-12-01T04:55:10.750Z,100.00
2022-12-01T04:58:13.265Z,100.00
2022-12-01T05:01:18.211Z,100.00
2022-12-01T05:04:20.860Z,100.00
2022-12-01T05:07:23.943Z,100.00
2022-12-01T05:10:26.514Z,100.00
2022-12-01T05:13:30.367Z,100.00
2022-12-01T05:16:33.827Z,100.00
2022-12-01T05:20:02.514Z,100.00
2022-12-01T05:23:06.391Z,100.00
2022-12-01T05:26:12.968Z,100.00
2022-12-01T05:29:15.529Z,100.00
2022-12-01T05:32:18.326Z,100.00
2022-12-01T05:35:21.257Z,100.00
2022-12-01T05:38:24.671Z,100.00
2022-12-01T05:41:27.370Z,100.00
2022-12-01T05:44:30.850Z,100.00
2022-12-01T05:47:34.386Z,100.00
2022-12-01T05:50:39.250Z,100.00
2022-12-01T05:53:42.920Z,100.00
2022-12-01T05:56:45.695Z,100.00
2022-12-01T05:59:48.432Z,100.00
2022-12-01T06:02:51.549Z,100.00
2022-12-01T06:05:54.489Z,100.00
2022-12-01T06:08:57.156Z,100.00
2022-12-01T06:11:59.986Z,100.00
2022-12-01T06:15:02.995Z,100.00
2022-12-01T06:18:05.999Z,100.00
2022-12-01T06:21:08.551Z,100.00
2022-12-01T06:24:11.552Z,100.00
2022-12-01T06:27:14.109Z,100.00
2022-12-01T06:30:17.309Z,100.00
2022-12-01T06:33:19.746Z,100.00
2022-12-01T06:36:22.521Z,100.00
2022-12-01T06:39:25.025Z,100.00
2022-12-01T06:42:30.654Z,100.00
2022-12-01T06:45:33.233Z,100.00
2022-12-01T06:48:36.069Z,100.00
2022-12-01T06:51:39.092Z,100.00
2022-12-01T06:54:41.894Z,100.00
2022-12-01T06:57:44.692Z,100.00
2022-12-01T07:00:52.091Z,100.00
2022-12-01T07:03:55.143Z,100.00
2022-12-01T07:06:57.979Z,100.00
2022-12-01T07:10:00.643Z,100.00
2022-12-01T07:13:03.502Z,100.00
2022-12-01T07:16:07.154Z,100.00
2022-12-01T07:19:09.968Z,100.00
2022-12-01T07:22:12.430Z,100.00
2022-12-01T07:25:15.297Z,100.00
2022-12-01T07:28:17.750Z,100.00
2022-12-01T07:31:20.657Z,100.00
2022-12-01T07:34:23.457Z,100.00
2022-12-01T07:37:26.307Z,100.00
2022-12-01T07:40:28.959Z,100.00
2022-12-01T07:43:32.905Z,100.00
2022-12-01T07:46:35.515Z,100.00
2022-12-01T07:49:38.535Z,100.00
2022-12-01T07:52:41.104Z,100.00
2022-12-01T07:55:49.335Z,100.00
2022-12-01T07:58:51.929Z,100.00
2022-12-01T08:01:54.807Z,100.00
2022-12-01T08:04:57.694Z,100.00
2022-12-01T08:08:00.327Z,100.00
2022-12-01T08:11:06.494Z,100.00
2022-12-01T08:14:09.165Z,100.00
2022-12-01T08:17:11.941Z,100.00
2022-12-01T08:20:19.559Z,100.00
2022-12-01T08:23:25.206Z,100.00
2022-12-01T08:26:28.715Z,100.00
2022-12-01T08:29:31.487Z,100.00
2022-12-01T08:32:33.905Z,100.00
2022-12-01T08:35:37.065Z,100.00
2022-12-01T08:38:39.569Z,100.00
2022-12-01T08:41:42.313Z,100.00
2022-12-01T08:44:44.909Z,100.00
2022-12-01T08:47:47.837Z,100.00
2022-12-01T08:50:50.432Z,100.00
2022-12-01T08:53:55.200Z,100.00
2022-12-01T08:56:57.620Z,99.45
2022-12-01T09:00:00.408Z,99.01
2022-12-01T09:03:02.981Z,97.72
2022-12-01T09:06:10.232Z,96.32
2022-12-01T09:09:17.789Z,96.47
2022-12-01T09:12:20.793Z,96.88
2022-12-01T09:15:23.320Z,96.08
2022-12-01T09:18:26.313Z,95.74
2022-12-01T09:21:30.848Z,95.59
2022-12-01T09:24:34.094Z,94.96
2022-12-01T09:27:36.685Z,93.74
2022-12-01T09:30:39.661Z,92.24
2022-12-01T09:33:42.346Z,91.71
2022-12-01T09:36:46.050Z,90.34
2022-12-01T09:39:48.843Z,88.65
2022-12-01T09:42:51.977Z,86.14
2022-12-01T09:46:07.679Z,86.22
2022-12-01T09:49:22.846Z,84.78
2022-12-01T09:52:28.057Z,84.05
2022-12-01T09:55:32.167Z,84.59
2022-12-01T09:58:34.878Z,82.93
2022-12-01T10:01:39.434Z,79.58
2022-12-01T10:04:44.980Z,78.59
2022-12-01T10:07:50.113Z,77.13
2022-12-01T10:10:56.291Z,76.68
2022-12-01T10:13:59.867Z,76.75
2022-12-01T10:17:30.690Z,76.17
2022-12-01T10:21:05.574Z,77.29
2022-12-01T10:24:26.977Z,74.36
2022-12-01T10:28:08.681Z,72.98
2022-12-01T10:31:36.469Z,73.31
2022-12-01T10:34:41.766Z,71.72
2022-12-01T10:37:45.566Z,70.49
2022-12-01T10:40:50.753Z,68.60
2022-12-01T10:43:59.517Z,71.07
2022-12-01T10:47:02.468Z,70.13
2022-12-01T10:50:06.050Z,71.58
2022-12-01T10:53:23.828Z,67.51
2022-12-01T10:56:26.671Z,68.17
2022-12-01T10:59:32.168Z,66.82
2022-12-01T11:02:35.409Z,66.48
2022-12-01T11:05:41.152Z,65.78
2022-12-01T11:08:47.149Z,63.58
2022-12-01T11:12:01.126Z,61.99
2022-12-01T11:15:05.308Z,61.50
2022-12-01T11:18:27.991Z,60.50
2022-12-01T11:21:30.987Z,59.22
2022-12-01T11:24:44.276Z,59.66
2022-12-01T11:27:52.796Z,59.48
2022-12-01T11:31:03.014Z,59.36
2022-12-01T11:34:06.335Z,61.98
2022-12-01T11:37:16.195Z,61.39
2022-12-01T11:40:28.247Z,61.90
2022-12-01T11:43:35.287Z,62.00
2022-12-01T11:46:50.171Z,62.84
2022-12-01T11:50:00.524Z,63.70
2022-12-01T11:53:04.199Z,65.58
2022-12-01T11:56:14.806Z,65.81
2022-12-01T11:59:25.969Z,64.97
2022-12-01T12:02:59.081Z,64.16
2022-12-01T12:06:39.472Z,64.25
2022-12-01T12:10:07.654Z,64.14
2022-12-01T12:13:16.325Z,62.93
2022-12-01T12:17:07.138Z,62.40
2022-12-01T12:20:47.075Z,62.71
2022-12-01T12:23:59.717Z,60.64
2022-12-01T12:27:27.383Z,60.78
2022-12-01T12:30:31.428Z,60.16
2022-12-01T12:34:14.433Z,59.66
2022-12-01T12:37:29.112Z,58.84
2022-12-01T12:40:51.017Z,59.43
2022-12-01T12:44:14.861Z,59.23
2022-12-01T12:47:29.151Z,60.35
2022-12-01T12:50:51.398Z,61.40
2022-12-01T12:54:04.509Z,61.37
2022-12-01T12:57:21.420Z,63.27
2022-12-01T13:00:26.877Z,64.80
2022-12-01T13:03:47.096Z,64.77
2022-12-01T13:07:01.426Z,66.36
2022-12-01T13:10:14.824Z,68.40
2022-12-01T13:13:37.577Z,68.87
2022-12-01T13:16:46.415Z,69.19
2022-12-01T13:19:49.736Z,70.33
2022-12-01T13:22:52.684Z,71.73
2022-12-01T13:25:58.043Z,72.85
2022-12-01T13:29:00.619Z,72.87
2022-12-01T13:32:04.904Z,74.29
2022-12-01T13:35:25.539Z,74.49
2022-12-01T13:38:30.294Z,75.24
2022-12-01T13:41:35.140Z,76.09
2022-12-01T13:44:40.179Z,77.14
2022-12-01T13:47:51.592Z,77.74
2022-12-01T13:50:55.849Z,78.57
2022-12-01T13:54:27.798Z,79.30
2022-12-01T13:57:32.638Z,80.13
2022-12-01T14:00:35.274Z,80.93
2022-12-01T14:03:40.300Z,81.70
2022-12-01T14:06:50.702Z,82.00
2022-12-01T14:09:58.056Z,82.44
2022-12-01T14:13:04.966Z,80.06
2022-12-01T14:16:08.344Z,77.61
2022-12-01T14:19:27.345Z,75.99
2022-12-01T14:22:33.224Z,75.33
2022-12-01T14:25:35.766Z,75.13
2022-12-01T14:29:00.726Z,76.93
2022-12-01T14:32:06.403Z,79.68
2022-12-01T14:35:11.791Z,82.47
2022-12-01T14:38:14.486Z,81.57
2022-12-01T14:41:24.093Z,83.27
2022-12-01T14:44:33.550Z,85.09
2022-12-01T14:47:42.699Z,87.19
2022-12-01T14:50:55.400Z,88.16
2022-12-01T14:53:59.450Z,89.56
2022-12-01T14:57:07.406Z,91.27
2022-12-01T15:00:20.858Z,92.18
2022-12-01T15:03:30.483Z,93.44
2022-12-01T15:06:35.972Z,94.14
2022-12-01T15:09:58.725Z,94.74
2022-12-01T15:13:20.778Z,95.47
2022-12-01T15:16:30.343Z,95.85
2022-12-01T15:19:37.577Z,96.34
2022-12-01T15:22:41.282Z,96.80
2022-12-01T15:25:45.830Z,97.20
2022-12-01T15:28:48.494Z,98.10
2022-12-01T15:31:54.798Z,98.73
2022-12-01T15:35:01.902Z,98.86
2022-12-01T15:38:05.088Z,99.25
2022-12-01T15:44:35.990Z,100.00
2022-12-01T15:47:41.155Z,100.00
2022-12-01T15:50:49.116Z,100.00
2022-12-01T15:53:54.702Z,100.00
2022-12-01T15:56:59.132Z,100.00
2022-12-01T16:00:01.879Z,100.00
2022-12-01T16:03:14.826Z,100.00
2022-12-01T16:06:18.117Z,100.00
2022-12-01T16:09:33.194Z,100.00
2022-12-01T16:12:37.108Z,100.00
2022-12-01T16:15:43.983Z,100.00
2022-12-01T16:19:02.325Z,100.00
2022-12-01T16:22:16.229Z,100.00
2022-12-01T16:25:24.939Z,100.00
2022-12-01T16:28:31.767Z,100.00
2022-12-01T16:31:40.318Z,100.00
2022-12-01T16:34:52.572Z,100.00
2022-12-01T16:37:55.464Z,100.00
2022-12-01T16:41:02.729Z,100.00
2022-12-01T16:44:27.688Z,100.00
2022-12-01T16:47:31.444Z,100.00
2022-12-01T16:50:34.503Z,100.00
2022-12-01T16:53:37.181Z,100.00
2022-12-01T16:56:40.252Z,100.00
2022-12-01T16:59:43.347Z,100.00
2022-12-01T17:02:46.225Z,100.00
2022-12-01T17:05:49.519Z,99.70
2022-12-01T17:08:52.368Z,100.00
2022-12-01T17:11:56.370Z,100.00
2022-12-01T17:14:59.234Z,100.00
2022-12-01T17:18:01.721Z,100.00
2022-12-01T17:21:08.059Z,100.00
2022-12-01T17:24:10.626Z,100.00
2022-12-01T17:27:13.746Z,100.00
2022-12-01T17:30:16.613Z,100.00
2022-12-01T17:33:19.478Z,100.00
2022-12-01T17:36:22.080Z,100.00
2022-12-01T17:39:25.176Z,100.00
2022-12-01T17:42:31.101Z,100.00
2022-12-01T17:45:33.912Z,100.00
2022-12-01T17:48:41.248Z,100.00
2022-12-01T17:51:44.168Z,100.00
2022-12-01T17:54:47.001Z,100.00
2022-12-01T17:57:50.081Z,100.00
2022-12-01T18:00:53.493Z,100.00
2022-12-01T18:03:58.200Z,100.00
2022-12-01T18:07:00.881Z,100.00
2022-12-01T18:10:04.093Z,100.00
2022-12-01T18:13:06.713Z,100.00
2022-12-01T18:16:18.691Z,100.00
2022-12-01T18:19:21.557Z,100.00
2022-12-01T18:22:24.507Z,100.00
2022-12-01T18:25:27.343Z,100.00
2022-12-01T18:28:30.431Z,100.00
2022-12-01T18:31:34.137Z,100.00
2022-12-01T18:34:37.354Z,100.00
2022-12-01T18:37:40.423Z,100.00
2022-12-01T18:40:43.472Z,100.00
2022-12-01T18:43:46.416Z,100.00
2022-12-01T18:46:49.687Z,100.00
2022-12-01T18:49:52.499Z,100.00
2022-12-01T18:52:55.506Z,100.00
2022-12-01T18:56:02.273Z,100.00
2022-12-01T18:59:07.314Z,100.00
2022-12-01T19:02:10.188Z,100.00
2022-12-01T19:05:13.865Z,100.00
2022-12-01T19:08:16.733Z,100.00
2022-12-01T19:11:20.223Z,100.00
2022-12-01T19:14:23.571Z,100.00
2022-12-01T19:17:26.722Z,100.00
2022-12-01T19:20:29.490Z,100.00
2022-12-01T19:23:32.839Z,100.00
2022-12-01T19:26:36.174Z,100.00
2022-12-01T19:29:39.208Z,100.00
2022-12-01T19:32:43.591Z,100.00
2022-12-01T19:35:46.661Z,100.00
2022-12-01T19:38:49.942Z,100.00
2022-12-01T19:41:53.088Z,100.00
2022-12-01T19:44:56.150Z,100.00
2022-12-01T19:47:59.466Z,100.00
2022-12-01T19:51:02.434Z,100.00
2022-12-01T19:54:08.473Z,100.00
2022-12-01T19:57:11.287Z,100.00
2022-12-01T20:00:14.713Z,100.00
2022-12-01T20:03:17.777Z,100.00
2022-12-01T20:06:23.162Z,100.00
2022-12-01T20:09:26.499Z,100.00
2022-12-01T20:12:29.318Z,100.00
2022-12-01T20:15:33.038Z,100.00
2022-12-01T20:18:36.523Z,100.00
2022-12-01T20:21:43.115Z,100.00
2022-12-01T20:24:46.208Z,100.00
2022-12-01T20:27:49.230Z,100.00
2022-12-01T20:30:52.220Z,100.00
2022-12-01T20:33:57.829Z,100.00
2022-12-01T20:37:00.832Z,100.00
2022-12-01T20:40:04.556Z,100.00
2022-12-01T20:43:07.016Z,100.00
2022-12-01T20:46:11.427Z,100.00
2022-12-01T20:49:15.862Z,100.00
2022-12-01T20:52:18.987Z,100.00
2022-12-01T20:55:22.018Z,100.00
2022-12-01T20:58:25.484Z,100.00
2022-12-01T21:01:28.738Z,100.00
2022-12-01T21:04:31.640Z,100.00
2022-12-01T21:07:34.431Z,100.00
2022-12-01T21:10:39.436Z,100.00
2022-12-01T21:13:42.337Z,100.00
2022-12-01T21:16:49.092Z,100.00
2022-12-01T21:20:01.513Z,100.00
2022-12-01T21:23:12.918Z,100.00
2022-12-01T21:26:19.116Z,100.00
2022-12-01T21:29:27.371Z,100.00
2022-12-01T21:32:31.998Z,100.00
2022-12-01T21:35:35.110Z,100.00
2022-12-01T21:38:37.821Z,100.00
2022-12-01T21:41:41.178Z,100.00
2022-12-01T21:44:43.928Z,100.00
2022-12-01T21:47:46.873Z,100.00
2022-12-01T21:50:56.950Z,100.00
2022-12-01T21:54:01.619Z,100.00
2022-12-01T21:57:24.064Z,100.00
2022-12-01T22:00:32.200Z,100.00
2022-12-01T22:03:39.950Z,100.00
2022-12-01T22:06:45.444Z,100.00
2022-12-01T22:09:48.495Z,100.00
2022-12-01T22:12:56.766Z,100.00
2022-12-01T22:15:59.655Z,100.00
2022-12-01T22:19:24.911Z,100.00
2022-12-01T22:22:29.341Z,100.00
2022-12-01T22:25:31.805Z,100.00
2022-12-01T22:28:34.947Z,100.00
2022-12-01T22:31:37.530Z,100.00
2022-12-01T22:34:45.096Z,100.00
2022-12-01T22:37:59.539Z,100.00
2022-12-01T22:41:05.437Z,100.00
2022-12-01T22:44:11.978Z,100.00
2022-12-01T22:47:15.077Z,100.00
2022-12-01T22:50:28.466Z,100.00
2022-12-01T22:53:31.577Z,100.00
2022-12-01T22:56:38.272Z,100.00
2022-12-01T22:59:43.096Z,100.00
2022-12-01T23:02:48.039Z,100.00
2022-12-01T23:05:55.577Z,100.00
2022-12-01T23:08:58.076Z,100.00
2022-12-01T23:12:10.135Z,100.00
2022-12-01T23:15:27.672Z,100.00
2022-12-01T23:18:34.095Z,100.00
2022-12-01T23:21:37.077Z,100.00
2022-12-01T23:24:40.174Z,100.00
2022-12-01T23:27:43.747Z,100.00
2022-12-01T23:30:48.181Z,100.00
2022-12-01T23:33:50.942Z,100.00
2022-12-01T23:36:53.755Z,100.00
2022-12-01T23:39:56.343Z,100.00
2022-12-01T23:43:12.348Z,100.00
2022-12-01T23:46:17.762Z,100.00
2022-12-01T23:49:23.041Z,100.00
2022-12-01T23:52:30.908Z,100.00
2022-12-01T23:55:34.407Z,100.00
2022-12-01T23:58:36.917Z,100.00
